Terminal Aerodrome Forecast
Issued by NWS

Home | Current Version | Previous Version | Text Only | Print | Product List | Glossary On
Versions: 1 2 3 4 5 6 7 8 9 10 11 12 13 14 15 16 17 18 19 20 21 22 23 24 25 26 27 28 29 30 31 32 33 34 35 36 37 38 39 40 41 42 43 44 45 46
000
FTAK31 PANC 202336
TAFAEN
TAF
PAEN 202336Z 2100/2124 05004KT P6SM FEW015 SCT120
     FM210600 VRB04KT 5SM BR BKN005 BKN080
     FM211200 VRB03KT 2SM BR OVC005
     FM211900 VRB04KT P6SM VCFG SCT005 BKN040=

USA.gov is the U.S. government's official web portal to all federal, state and local government web resources and services.